CheckWX is a tool to help pilots better visualize weather data.  It is not intended as a substitute for an official pre-flight weather briefing.

23:45:28 UTC

VIDP TAF
Indira Gandhi International Airport
New Delhi, India
TAF VIDP 101700Z 1018/1124 27010G25KT 1500 TSRA SCT030 FEW035CB BKN090 BECMG 1102/1104 23005KT 2500 -RA BR SCT035 SCT100 BECMG 1106/1108 27008G18KT 4000 HZ FEW035 BECMG 1118/1124 27008G20KT 2000 -TSRA SCT035 FEW040CB BKN090

Jul-10@
18:00 UTC

Jul-10 @ 18:00 UTC

Jul-11@
02:00 UTC

Jul-11 @ 02:00 UTC

TAF VIDP 101700Z 1018/1124 27010G25KT 1500 TSRA SCT030 FEW035CB BKN090

Expired

Wind
  • 270° at 10 KTS
  • {Gusting to 25 KTS
Conditions
Thunderstorm, Rain
Cloud Levels
  • Scattered at 3,000' AGL
  • Few at 3,500' AGL
  • Broken at 9,000' AGL

Jul-11@
02:00 UTC

Jul-11 @ 02:00 UTC

Jul-11@
06:00 UTC

Jul-11 @ 06:00 UTC

BECMG 1102/1104 23005KT 2500 -RA BR SCT035 SCT100

Expired

Wind
  • 230° at 5 KTS
Conditions
Light Rain, Mist
Cloud Levels
  • Scattered at 3,500' AGL
  • Scattered at 10,000' AGL

Jul-11@
06:00 UTC

Jul-11 @ 06:00 UTC

Jul-11@
18:00 UTC

Jul-11 @ 18:00 UTC

BECMG 1106/1108 27008G18KT 4000 HZ FEW035

Expired

Wind
  • 270° at 8 KTS
  • {Gusting to 18 KTS
Conditions
Haze
Cloud Levels
  • Few at 3,500' AGL

Jul-11@
18:00 UTC

Jul-11 @ 18:00 UTC

Jul-12@
00:00 UTC

Jul-12 @ 00:00 UTC

BECMG 1118/1124 27008G20KT 2000 -TSRA SCT035 FEW040CB BKN090

Becoming

Becoming Conditions expected by Sun, Jul 12, 2020 @ 00:00 UTC

Wind
  • 270° at 8 KTS
  • {Gusting to 20 KTS
Conditions
Light Thunderstorm, Rain
Cloud Levels
  • Scattered at 3,500' AGL
  • Few at 4,000' AGL
  • Broken at 9,000' AGL